Time;durP1;ratioP1;P1;durP2;ratioP2;P2;SDS_P1;SDS_P2;PMS_P1;PMS_P2;Temp;Humidity;BMP_temperature;BMP_pressure;BME280_temperature;BME280_humidity;BME280_pressure;Samples;Min_cycle;Max_cycle;Signal;HPM_P1;HPM_P2
2021/12/23 00:00:37;;;;;;;447.87;109.70;;;-1.80;99.90;;;;;;5035060;28;20467;-71
2021/12/23 00:03:06;;;;;;;467.10;76.63;;;-1.80;99.90;;;;;;5036626;28;20466;-71
2021/12/23 00:05:34;;;;;;;641.53;110.57;;;-1.80;99.90;;;;;;5036741;28;20841;-71
2021/12/23 00:08:02;;;;;;;553.50;90.83;;;-1.80;99.90;;;;;;5034540;28;20449;-71
2021/12/23 00:10:30;;;;;;;855.13;147.33;;;-1.80;99.90;;;;;;5035988;28;20455;-71
2021/12/23 00:12:59;;;;;;;628.37;147.10;;;-1.70;99.90;;;;;;5034822;28;20451;-71
2021/12/23 00:15:37;;;;;;;569.57;75.10;;;-1.80;99.90;;;;;;5036208;28;20435;-71
2021/12/23 00:18:19;;;;;;;539.90;109.87;;;-1.80;99.90;;;;;;5035976;28;20557;-71
2021/12/23 00:23:33;;;;;;;645.20;92.67;;;-1.70;99.90;;;;;;5036177;28;20457;-71
2021/12/23 00:26:02;;;;;;;432.67;96.87;;;-1.70;99.90;;;;;;5036222;28;20438;-71
2021/12/23 00:28:32;;;;;;;628.17;103.83;;;-1.70;99.90;;;;;;5035948;28;20435;-71
2021/12/23 00:31:00;;;;;;;434.47;87.80;;;-1.70;99.90;;;;;;5035796;28;20450;-71
2021/12/23 00:33:30;;;;;;;783.90;139.33;;;-1.70;99.90;;;;;;5035360;28;20538;-71
2021/12/23 00:35:59;;;;;;;793.20;134.97;;;-1.70;99.90;;;;;;5030129;28;20454;-71
2021/12/23 00:38:30;;;;;;;797.87;141.93;;;-1.70;99.90;;;;;;5018175;28;20445;-71
2021/12/23 00:41:01;;;;;;;689.67;141.83;;;-1.70;99.90;;;;;;5035626;28;20970;-71
2021/12/23 00:43:30;;;;;;;666.13;98.77;;;-1.70;99.90;;;;;;5036295;28;20526;-71
2021/12/23 00:45:59;;;;;;;792.23;108.93;;;-1.70;99.90;;;;;;5035635;28;21161;-71
2021/12/23 00:48:27;;;;;;;474.60;77.40;;;-1.70;99.90;;;;;;5037881;28;20461;-71
2021/12/23 00:50:57;;;;;;;599.83;100.47;;;-1.60;99.90;;;;;;5036592;28;20462;-71
2021/12/23 00:53:27;;;;;;;550.83;115.47;;;-1.60;99.90;;;;;;5036271;28;20439;-71
2021/12/23 00:55:55;;;;;;;748.77;97.90;;;-1.60;99.90;;;;;;5035200;28;20454;-71
2021/12/23 00:58:24;;;;;;;582.23;118.17;;;-1.60;99.90;;;;;;5035405;28;20466;-71
2021/12/23 01:00:53;;;;;;;841.83;156.07;;;-1.60;99.90;;;;;;5035413;28;20458;-71
2021/12/23 01:03:22;;;;;;;581.37;61.60;;;-1.60;99.90;;;;;;5035395;28;20533;-71
2021/12/23 01:05:50;;;;;;;601.93;119.93;;;-1.60;99.90;;;;;;5035592;28;20434;-71
2021/12/23 01:08:19;;;;;;;844.73;147.60;;;-1.60;99.90;;;;;;5035363;28;20469;-71
2021/12/23 01:10:51;;;;;;;733.07;93.63;;;-1.60;99.90;;;;;;5035732;28;20451;-71
2021/12/23 01:13:24;;;;;;;502.90;103.63;;;-1.60;99.90;;;;;;5017688;28;20920;-71
2021/12/23 01:16:02;;;;;;;838.87;116.67;;;-1.60;99.90;;;;;;5035881;28;20513;-71
2021/12/23 01:18:37;;;;;;;499.77;104.87;;;-1.60;99.90;;;;;;5035320;28;20462;-71
2021/12/23 01:21:16;;;;;;;792.40;165.67;;;-1.50;99.90;;;;;;5035512;28;20475;-71
2021/12/23 01:23:48;;;;;;;721.90;78.20;;;-1.50;99.90;;;;;;5034926;28;20443;-71
2021/12/23 01:26:21;;;;;;;284.00;53.43;;;-1.50;99.90;;;;;;5035209;28;20769;-71
2021/12/23 01:28:53;;;;;;;792.10;128.60;;;-1.50;99.90;;;;;;5033695;28;20465;-71
2021/12/23 01:31:23;;;;;;;756.30;138.30;;;-1.50;99.90;;;;;;5034559;28;20462;-71
2021/12/23 01:33:51;;;;;;;452.83;55.37;;;-1.50;99.90;;;;;;5034037;28;20514;-71
2021/12/23 01:36:20;;;;;;;623.40;105.03;;;-1.50;99.90;;;;;;5034526;28;20923;-71
2021/12/23 01:38:50;;;;;;;881.37;147.00;;;-1.50;99.90;;;;;;5034673;28;20968;-71
2021/12/23 01:41:19;;;;;;;851.43;145.90;;;-1.40;99.90;;;;;;5034912;28;20475;-71
2021/12/23 01:43:47;;;;;;;562.67;96.37;;;-1.50;99.90;;;;;;5034917;28;20419;-71
2021/12/23 01:46:15;;;;;;;879.37;140.97;;;-1.40;99.90;;;;;;5034319;28;20446;-71
2021/12/23 01:48:44;;;;;;;644.37;98.87;;;-1.40;99.90;;;;;;5034180;28;20454;-71
2021/12/23 01:51:13;;;;;;;791.60;139.47;;;-1.40;99.90;;;;;;5034144;28;20967;-71
2021/12/23 01:53:41;;;;;;;580.40;100.83;;;-1.40;99.90;;;;;;5033481;28;20875;-71
2021/12/23 01:56:11;;;;;;;741.73;104.40;;;-1.40;99.90;;;;;;5034125;28;20438;-71
2021/12/23 01:58:40;;;;;;;580.13;101.93;;;-1.40;99.90;;;;;;5034337;28;20827;-71
2021/12/23 02:01:09;;;;;;;698.93;113.43;;;-1.40;99.90;;;;;;5034038;28;20454;-71
2021/12/23 02:03:38;;;;;;;577.57;73.63;;;-1.40;99.90;;;;;;5034059;28;20907;-71
2021/12/23 02:06:06;;;;;;;398.47;80.20;;;-1.30;99.90;;;;;;5033937;28;20439;-71
2021/12/23 02:08:36;;;;;;;665.80;125.73;;;-1.30;99.90;;;;;;5034197;28;20443;-71
2021/12/23 02:11:05;;;;;;;783.10;117.90;;;-1.40;99.90;;;;;;5032685;28;20454;-71
2021/12/23 02:13:36;;;;;;;788.77;162.27;;;-1.30;99.90;;;;;;5033169;28;20462;-71
2021/12/23 02:16:05;;;;;;;649.77;118.23;;;-1.30;99.90;;;;;;5034693;28;20431;-71
2021/12/23 02:18:33;;;;;;;828.17;148.53;;;-1.30;99.90;;;;;;5033808;28;20896;-71
2021/12/23 02:21:04;;;;;;;586.67;141.57;;;-1.30;99.90;;;;;;5033692;28;20457;-71
2021/12/23 02:23:34;;;;;;;486.03;110.63;;;-1.30;99.90;;;;;;5034057;28;20453;-71
2021/12/23 02:26:02;;;;;;;602.60;94.03;;;-1.30;99.90;;;;;;5034138;28;20834;-71
2021/12/23 02:28:30;;;;;;;592.53;76.77;;;-1.30;99.90;;;;;;5033622;28;20427;-71
2021/12/23 02:30:58;;;;;;;401.23;65.73;;;-1.30;99.90;;;;;;5033350;28;20546;-72
2021/12/23 02:33:28;;;;;;;936.77;150.10;;;-1.30;99.90;;;;;;5032879;28;20914;-71
2021/12/23 02:35:57;;;;;;;815.23;107.33;;;-1.20;99.90;;;;;;5033505;28;20431;-71
2021/12/23 02:38:27;;;;;;;440.47;56.70;;;-1.30;99.90;;;;;;5033394;28;20471;-71
2021/12/23 02:40:55;;;;;;;841.50;133.13;;;-1.30;99.90;;;;;;5033136;28;20465;-71
2021/12/23 02:43:26;;;;;;;792.90;106.93;;;-1.30;99.90;;;;;;5033670;28;20814;-71
2021/12/23 02:45:56;;;;;;;812.27;106.00;;;-1.30;99.90;;;;;;5033514;28;20782;-71
2021/12/23 02:48:27;;;;;;;792.13;106.00;;;-1.20;99.90;;;;;;5033842;28;20434;-71
2021/12/23 02:50:56;;;;;;;599.63;83.27;;;-1.20;99.90;;;;;;5033249;28;20462;-71
2021/12/23 02:53:25;;;;;;;941.20;119.70;;;-1.20;99.90;;;;;;5033060;28;20450;-71
2021/12/23 02:55:57;;;;;;;875.13;146.83;;;-1.20;99.90;;;;;;5033175;28;20798;-71
2021/12/23 02:58:25;;;;;;;812.67;132.07;;;-1.20;99.90;;;;;;5032777;28;20552;-71
2021/12/23 03:00:55;;;;;;;632.70;98.10;;;-1.20;99.90;;;;;;5033108;28;20462;-71
2021/12/23 03:03:24;;;;;;;863.60;97.43;;;-1.20;99.90;;;;;;5033378;28;20430;-71
2021/12/23 03:05:54;;;;;;;803.53;140.27;;;-1.20;99.90;;;;;;5033227;28;20438;-71
2021/12/23 03:08:28;;;;;;;862.40;113.97;;;-1.20;99.90;;;;;;5015736;28;20745;-71
2021/12/23 03:10:58;;;;;;;668.83;123.03;;;-1.20;99.90;;;;;;5033300;28;20455;-71
2021/12/23 03:13:26;;;;;;;796.43;101.57;;;-1.20;99.90;;;;;;5033061;28;20811;-71
2021/12/23 03:15:54;;;;;;;1085.73;162.20;;;-1.20;99.90;;;;;;5033017;28;20439;-71
2021/12/23 03:18:23;;;;;;;665.23;83.37;;;-1.20;99.90;;;;;;5032480;28;20497;-71
2021/12/23 03:20:51;;;;;;;834.47;110.10;;;-1.10;99.90;;;;;;5033190;28;20476;-71
2021/12/23 03:23:19;;;;;;;895.73;146.30;;;-1.10;99.90;;;;;;5016904;28;20450;-71
2021/12/23 03:25:47;;;;;;;862.10;125.53;;;-1.10;99.90;;;;;;5033274;28;20435;-71
2021/12/23 03:28:17;;;;;;;801.67;136.00;;;-1.10;99.90;;;;;;4995617;28;20439;-71
2021/12/23 03:30:45;;;;;;;535.80;108.23;;;-1.10;99.90;;;;;;5013371;28;20894;-71
2021/12/23 03:33:14;;;;;;;959.20;127.97;;;-1.10;99.90;;;;;;5013389;28;20470;-71
2021/12/23 03:35:42;;;;;;;662.97;107.13;;;-1.10;99.90;;;;;;5008450;28;20978;-71
2021/12/23 03:38:10;;;;;;;783.63;129.60;;;-1.10;99.90;;;;;;5032960;28;20494;-71
2021/12/23 03:40:39;;;;;;;1236.03;184.07;;;-1.10;99.90;;;;;;5033194;28;20807;-71
2021/12/23 03:43:10;;;;;;;998.70;131.43;;;-1.10;99.90;;;;;;5015058;28;20463;-71
2021/12/23 03:45:42;;;;;;;741.07;120.93;;;-1.10;99.90;;;;;;5031509;28;21015;-71
2021/12/23 03:48:11;;;;;;;712.00;138.33;;;-1.10;99.90;;;;;;5014995;28;20475;-71
2021/12/23 03:50:39;;;;;;;966.03;132.40;;;-1.10;99.90;;;;;;5030171;28;20824;-71
2021/12/23 03:53:07;;;;;;;1263.70;169.47;;;-1.10;99.90;;;;;;5032731;28;20449;-71
2021/12/23 03:55:35;;;;;;;886.30;170.53;;;-1.10;99.90;;;;;;5014998;28;20450;-71
2021/12/23 03:58:04;;;;;;;790.83;85.53;;;-1.10;99.90;;;;;;5035917;28;20780;-71
2021/12/23 04:00:33;;;;;;;884.90;145.90;;;-1.10;99.90;;;;;;5036339;28;20466;-71
2021/12/23 04:03:02;;;;;;;847.17;126.17;;;-1.10;99.90;;;;;;5036356;28;20466;-71
2021/12/23 04:05:30;;;;;;;997.70;146.63;;;-1.10;99.90;;;;;;5036555;28;20443;-71
2021/12/23 04:07:58;;;;;;;871.40;147.90;;;-1.10;99.90;;;;;;5036705;28;20439;-71
2021/12/23 04:10:27;;;;;;;894.23;138.60;;;-1.10;99.90;;;;;;5035346;28;20473;-71
2021/12/23 04:12:55;;;;;;;749.87;86.27;;;-1.00;99.90;;;;;;5036268;28;20824;-71
2021/12/23 04:15:23;;;;;;;816.10;104.13;;;-1.10;99.90;;;;;;5039262;28;20461;-71
2021/12/23 04:17:51;;;;;;;964.83;177.23;;;-1.10;99.90;;;;;;5037507;28;20441;-71
2021/12/23 04:20:23;;;;;;;821.30;127.10;;;-1.10;99.90;;;;;;5036881;28;20481;-71
2021/12/23 04:22:53;;;;;;;868.93;146.67;;;-1.00;99.90;;;;;;5036513;28;20888;-71
2021/12/23 04:25:24;;;;;;;965.63;146.37;;;-1.00;99.90;;;;;;5036418;28;20810;-71
2021/12/23 04:27:54;;;;;;;1055.87;183.63;;;-1.00;99.90;;;;;;5036491;28;20415;-71
2021/12/23 04:30:23;;;;;;;1188.83;155.37;;;-1.00;99.90;;;;;;5017826;28;20474;-71
2021/12/23 04:32:52;;;;;;;990.30;136.10;;;-1.00;99.90;;;;;;5018146;28;20455;-71
2021/12/23 04:35:22;;;;;;;1389.57;199.63;;;-1.00;99.90;;;;;;5036084;28;20441;-71
2021/12/23 04:37:51;;;;;;;923.20;120.23;;;-1.00;99.90;;;;;;5034804;28;20450;-71
2021/12/23 04:40:19;;;;;;;1387.57;214.27;;;-1.00;99.90;;;;;;5035568;28;20959;-71
2021/12/23 04:42:47;;;;;;;1257.33;164.07;;;-1.00;99.90;;;;;;5034225;28;20461;-71
2021/12/23 04:45:15;;;;;;;1658.67;235.43;;;-1.00;99.90;;;;;;5030251;28;20450;-71
2021/12/23 04:47:44;;;;;;;761.97;140.50;;;-0.90;99.90;;;;;;5017755;28;20450;-71
2021/12/23 04:50:14;;;;;;;818.73;132.97;;;-0.90;99.90;;;;;;5035518;28;20502;-71
2021/12/23 04:52:45;;;;;;;937.10;140.03;;;-0.90;99.90;;;;;;5035684;28;20443;-71
2021/12/23 04:55:14;;;;;;;917.23;146.60;;;-0.90;99.90;;;;;;5035017;28;20469;-71
2021/12/23 04:57:42;;;;;;;837.03;107.57;;;-0.90;99.90;;;;;;5035600;28;20866;-71
2021/12/23 05:00:15;;;;;;;947.43;112.10;;;-0.90;99.90;;;;;;5033917;28;20486;-71
2021/12/23 05:02:43;;;;;;;1468.03;223.00;;;-0.90;99.90;;;;;;5035540;28;20928;-71
2021/12/23 05:05:12;;;;;;;1662.10;304.83;;;-0.90;99.90;;;;;;5035229;28;20553;-71
2021/12/23 05:07:41;;;;;;;788.80;96.37;;;-0.90;99.90;;;;;;5034561;28;20531;-71
2021/12/23 05:10:13;;;;;;;1237.07;160.00;;;-0.90;99.90;;;;;;5033403;28;20474;-71
2021/12/23 05:12:45;;;;;;;1086.70;135.50;;;-0.90;99.90;;;;;;5035437;28;20431;-71
2021/12/23 05:15:17;;;;;;;1205.87;194.20;;;-0.90;99.90;;;;;;5034732;28;20450;-71
2021/12/23 05:17:47;;;;;;;1027.43;189.10;;;-0.90;99.90;;;;;;5035391;28;20446;-71
2021/12/23 05:20:17;;;;;;;781.77;156.97;;;-0.90;99.90;;;;;;5035031;28;20485;-71
2021/12/23 05:22:45;;;;;;;1636.37;280.50;;;-0.80;99.90;;;;;;5035098;28;20443;-71
2021/12/23 05:25:14;;;;;;;1092.70;201.83;;;-0.80;99.90;;;;;;5033778;28;20465;-71
2021/12/23 05:27:43;;;;;;;942.50;104.67;;;-0.80;99.90;;;;;;5034909;28;20449;-69
2021/12/23 05:30:14;;;;;;;1024.50;168.97;;;-0.80;99.90;;;;;;5034872;28;20828;-70
2021/12/23 05:32:44;;;;;;;984.10;181.57;;;-0.80;99.90;;;;;;5035114;28;20779;-70
2021/12/23 05:35:13;;;;;;;835.37;132.77;;;-0.80;99.90;;;;;;5034386;28;20454;-70
2021/12/23 05:37:41;;;;;;;852.23;117.90;;;-0.80;99.90;;;;;;5034589;28;20449;-70
2021/12/23 05:40:11;;;;;;;794.07;113.93;;;-0.80;99.90;;;;;;5034543;28;20482;-70
2021/12/23 05:42:41;;;;;;;1074.27;143.23;;;-0.70;99.90;;;;;;5034539;28;20482;-70
2021/12/23 05:45:10;;;;;;;1128.67;132.97;;;-0.80;99.90;;;;;;5034976;28;20435;-70
2021/12/23 05:47:38;;;;;;;1204.87;169.07;;;-0.70;99.90;;;;;;5034375;28;20450;-70
2021/12/23 05:50:08;;;;;;;978.20;158.97;;;-0.70;99.90;;;;;;5034576;28;20470;-70
2021/12/23 05:52:36;;;;;;;953.90;153.37;;;-0.70;99.90;;;;;;5034213;28;20443;-70
2021/12/23 05:55:06;;;;;;;1827.37;307.60;;;-0.70;99.90;;;;;;5034315;28;20542;-71
2021/12/23 05:57:35;;;;;;;1091.83;134.47;;;-0.70;99.90;;;;;;5034158;28;20431;-70
2021/12/23 06:00:06;;;;;;;1499.10;214.17;;;-0.70;99.90;;;;;;5016273;28;20473;-70
2021/12/23 06:02:36;;;;;;;1002.23;130.90;;;-0.70;99.90;;;;;;5034155;28;20443;-70
2021/12/23 06:05:05;;;;;;;972.13;154.90;;;-0.70;99.90;;;;;;5031752;28;20448;-70
2021/12/23 06:07:33;;;;;;;959.90;147.47;;;-0.70;99.90;;;;;;5034042;28;20478;-70
2021/12/23 06:10:01;;;;;;;1822.17;332.73;;;-0.70;99.90;;;;;;5033921;28;21015;-70
2021/12/23 06:12:29;;;;;;;1792.77;284.33;;;-0.70;99.90;;;;;;5034170;28;20442;-70
2021/12/23 06:14:58;;;;;;;1254.27;207.90;;;-0.60;99.90;;;;;;5033681;28;20782;-70
2021/12/23 06:17:27;;;;;;;1096.07;162.73;;;-0.60;99.90;;;;;;5034116;28;20435;-70
2021/12/23 06:19:55;;;;;;;1033.07;150.30;;;-0.70;99.90;;;;;;5033271;28;20471;-70
2021/12/23 06:22:23;;;;;;;835.33;94.97;;;-0.60;99.90;;;;;;5033844;28;20454;-70
2021/12/23 06:24:51;;;;;;;962.40;154.00;;;-0.60;99.90;;;;;;5033916;28;20444;-70
2021/12/23 06:27:21;;;;;;;1169.33;175.73;;;-0.60;99.90;;;;;;5033960;28;20453;-70
2021/12/23 06:29:49;;;;;;;692.23;98.50;;;-0.60;99.90;;;;;;5033791;28;20443;-70
2021/12/23 06:32:17;;;;;;;1120.83;133.93;;;-0.60;99.90;;;;;;5033586;28;20435;-69
2021/12/23 06:34:46;;;;;;;1098.87;183.93;;;-0.60;99.90;;;;;;5033271;28;20462;-70
2021/12/23 06:37:14;;;;;;;1042.30;152.67;;;-0.60;99.90;;;;;;5033654;28;20447;-70
2021/12/23 06:39:44;;;;;;;909.23;161.17;;;-0.60;99.90;;;;;;5033003;28;21017;-70
2021/12/23 06:42:12;;;;;;;1038.00;169.77;;;-0.50;99.90;;;;;;5033485;28;20447;-70
2021/12/23 06:44:40;;;;;;;1181.17;163.80;;;-0.50;99.90;;;;;;5033432;28;20530;-70
2021/12/23 06:47:08;;;;;;;1799.77;299.87;;;-0.50;99.90;;;;;;5034113;28;20441;-70
2021/12/23 06:49:36;;;;;;;1249.30;208.83;;;-0.50;99.90;;;;;;5034349;28;20445;-70
2021/12/23 06:52:06;;;;;;;1131.33;173.33;;;-0.50;99.90;;;;;;5033499;28;20473;-70
2021/12/23 06:54:41;;;;;;;969.50;142.90;;;-0.50;99.90;;;;;;5032905;28;20462;-70
2021/12/23 06:57:09;;;;;;;1194.90;158.73;;;-0.50;99.90;;;;;;5033810;28;20422;-70
2021/12/23 06:59:37;;;;;;;1140.93;136.77;;;-0.50;99.90;;;;;;5033270;28;20451;-70
2021/12/23 07:02:06;;;;;;;1907.73;361.27;;;-0.50;99.90;;;;;;5033414;28;20459;-70
2021/12/23 07:04:36;;;;;;;1477.50;166.47;;;-0.50;99.90;;;;;;5015583;28;20509;-70
2021/12/23 07:07:10;;;;;;;1146.77;162.83;;;-0.50;99.90;;;;;;5033563;28;20843;-70
2021/12/23 07:09:40;;;;;;;1137.87;147.90;;;-0.50;99.90;;;;;;5033299;28;20422;-70
2021/12/23 07:12:10;;;;;;;1123.57;209.43;;;-0.50;99.90;;;;;;5032861;28;20558;-70
2021/12/23 07:14:40;;;;;;;1305.73;222.00;;;-0.50;99.90;;;;;;5033124;28;20800;-70
2021/12/23 07:17:08;;;;;;;1179.30;224.93;;;-0.50;99.90;;;;;;5032588;28;20950;-70
2021/12/23 07:19:36;;;;;;;1580.53;241.10;;;-0.50;99.90;;;;;;5016902;28;20816;-70
2021/12/23 07:22:06;;;;;;;1218.10;208.40;;;-0.40;99.90;;;;;;5015216;28;21003;-70
2021/12/23 07:24:35;;;;;;;1220.20;209.00;;;-0.40;99.90;;;;;;5033266;28;20967;-70
2021/12/23 07:27:03;;;;;;;1535.37;217.07;;;-0.40;99.90;;;;;;5032914;28;20439;-70
2021/12/23 07:29:32;;;;;;;1227.20;140.60;;;-0.40;99.90;;;;;;5032937;28;20441;-70
2021/12/23 07:32:02;;;;;;;1380.67;189.73;;;-0.40;99.90;;;;;;5034267;28;20458;-70
2021/12/23 07:34:31;;;;;;;997.50;161.23;;;-0.40;99.90;;;;;;5037252;28;20857;-70
2021/12/23 07:36:59;;;;;;;1290.73;190.20;;;-0.40;99.90;;;;;;5038352;28;20434;-70
2021/12/23 07:39:28;;;;;;;985.13;145.73;;;-0.40;99.90;;;;;;5038588;28;20454;-70
2021/12/23 07:42:18;;;;;;;1055.20;122.70;;;-0.40;99.90;;;;;;5018133;28;20466;-70
2021/12/23 07:44:47;;;;;;;1706.80;227.07;;;-0.40;99.90;;;;;;5017850;28;20439;-70
2021/12/23 07:47:16;;;;;;;49.35;45.25;;;-0.30;99.90;;;;;;5016663;28;20452;-70
2021/12/23 07:49:44;;;;;;;633.30;246.67;;;-0.30;99.90;;;;;;5016800;28;20192;-70
2021/12/23 07:52:13;;;;;;;1999.90;649.13;;;-0.20;99.90;;;;;;5016766;28;20936;-70
2021/12/23 07:54:42;;;;;;;1999.90;405.93;;;-0.20;99.90;;;;;;5017045;28;20435;-70
2021/12/23 07:57:10;;;;;;;1402.90;218.17;;;-0.20;99.90;;;;;;5016729;28;20443;-70
2021/12/23 07:59:38;;;;;;;1090.83;193.97;;;-0.20;99.90;;;;;;5034928;28;20873;-70
2021/12/23 08:02:07;;;;;;;1339.30;220.63;;;-0.20;99.90;;;;;;5036324;28;20481;-70
2021/12/23 08:04:35;;;;;;;1391.67;224.73;;;-0.20;99.90;;;;;;5036662;28;20517;-70
2021/12/23 08:07:04;;;;;;;1377.80;196.30;;;-0.20;99.90;;;;;;5036523;28;20453;-70
2021/12/23 08:09:32;;;;;;;1138.47;172.20;;;-0.20;99.90;;;;;;5036730;28;20435;-69
2021/12/23 08:12:05;;;;;;;1235.77;174.07;;;-0.20;99.90;;;;;;5036242;28;20828;-70
2021/12/23 08:14:33;;;;;;;1210.40;200.00;;;-0.20;99.90;;;;;;5036610;28;20454;-69
2021/12/23 08:17:20;;;;;;;1576.50;188.47;;;-0.20;99.90;;;;;;5036614;28;20430;-70
2021/12/23 08:19:48;;;;;;;1393.60;200.63;;;-0.20;99.90;;;;;;5036060;28;20560;-70
2021/12/23 08:22:17;;;;;;;970.53;149.00;;;-0.10;99.90;;;;;;5035992;28;20478;-70
2021/12/23 08:24:45;;;;;;;1880.40;217.30;;;-0.10;99.90;;;;;;5036210;28;20443;-69
2021/12/23 08:27:15;;;;;;;1712.77;280.70;;;-0.10;99.90;;;;;;5036006;28;20470;-70
2021/12/23 08:29:43;;;;;;;1928.37;298.97;;;-0.10;99.90;;;;;;5034725;28;20435;-70
2021/12/23 08:32:11;;;;;;;1999.90;337.20;;;-0.10;99.90;;;;;;5035029;28;20439;-70
2021/12/23 08:34:39;;;;;;;1040.73;183.80;;;-0.10;99.90;;;;;;5035655;28;20447;-70
2021/12/23 08:37:11;;;;;;;1372.70;201.50;;;0.00;99.90;;;;;;5036774;28;20442;-70
2021/12/23 08:39:39;;;;;;;1999.90;334.87;;;-0.10;99.90;;;;;;5018380;28;20893;-70
2021/12/23 08:42:07;;;;;;;1303.23;195.73;;;-0.10;99.90;;;;;;5035018;28;20482;-70
2021/12/23 08:44:40;;;;;;;1526.87;148.07;;;0.00;99.90;;;;;;5035737;28;20966;-70
2021/12/23 08:47:08;;;;;;;1762.87;233.77;;;0.00;99.90;;;;;;5035706;28;20786;-70
2021/12/23 08:49:36;;;;;;;1117.30;194.83;;;0.00;99.90;;;;;;5035723;28;20518;-70
2021/12/23 08:52:05;;;;;;;1018.27;148.20;;;0.00;99.90;;;;;;5035484;28;20485;-70
2021/12/23 08:54:33;;;;;;;1940.80;399.50;;;0.00;99.90;;;;;;5035483;28;20435;-70
2021/12/23 08:57:02;;;;;;;1481.63;222.03;;;0.00;99.90;;;;;;5034120;28;20439;-70
2021/12/23 08:59:30;;;;;;;1629.83;226.53;;;0.00;99.90;;;;;;5035342;28;21007;-70
2021/12/23 09:02:00;;;;;;;1600.67;263.63;;;0.00;99.90;;;;;;5035112;28;20479;-70
2021/12/23 09:04:32;;;;;;;1662.87;220.50;;;0.00;99.90;;;;;;5035836;28;20419;-69
2021/12/23 09:07:01;;;;;;;1692.47;278.93;;;0.00;99.90;;;;;;5035171;28;20435;-70
2021/12/23 09:09:32;;;;;;;988.30;112.07;;;0.10;99.90;;;;;;5034839;28;20451;-70
2021/12/23 09:12:01;;;;;;;1268.33;188.10;;;0.10;99.90;;;;;;5035051;28;20475;-70
2021/12/23 09:14:29;;;;;;;1877.00;242.43;;;0.10;99.90;;;;;;5034998;28;20455;-71
2021/12/23 09:16:58;;;;;;;1790.53;260.87;;;0.10;99.90;;;;;;5035292;28;20438;-70
2021/12/23 09:19:26;;;;;;;1321.17;159.70;;;0.10;99.90;;;;;;5034548;28;20461;-71
2021/12/23 09:21:54;;;;;;;1913.17;319.07;;;0.10;99.90;;;;;;5035178;28;20477;-70
2021/12/23 09:24:23;;;;;;;1602.07;184.50;;;0.20;99.90;;;;;;5034983;28;20446;-70
2021/12/23 09:26:56;;;;;;;1521.20;169.17;;;0.20;99.90;;;;;;5030998;28;20446;-70
2021/12/23 09:34:54;;;;;;;1259.30;130.43;;;0.20;99.90;;;;;;5034510;28;20443;-71
2021/12/23 09:37:23;;;;;;;1625.53;191.43;;;0.20;99.90;;;;;;5034888;28;20802;-71
2021/12/23 09:39:54;;;;;;;1893.27;258.13;;;0.30;99.90;;;;;;5023389;28;20461;-71
2021/12/23 09:42:25;;;;;;;1878.03;215.10;;;0.30;99.90;;;;;;5034560;28;20996;-71
2021/12/23 09:44:57;;;;;;;1880.43;267.33;;;0.30;99.90;;;;;;5034809;28;20422;-70
2021/12/23 09:47:28;;;;;;;1748.30;200.90;;;0.30;99.90;;;;;;5034971;28;20912;-71
2021/12/23 09:50:01;;;;;;;1563.13;191.43;;;0.40;99.90;;;;;;5032658;28;20447;-71
2021/12/23 09:52:33;;;;;;;1968.37;240.47;;;0.40;99.90;;;;;;5034550;28;20423;-71
2021/12/23 09:55:04;;;;;;;1749.33;182.03;;;0.40;99.90;;;;;;5033801;28;20443;-70
2021/12/23 09:57:32;;;;;;;1292.10;120.60;;;0.40;99.90;;;;;;5034435;28;20455;-71
2021/12/23 10:00:01;;;;;;;1825.37;172.03;;;0.50;99.90;;;;;;5034329;28;20435;-71
2021/12/23 10:02:30;;;;;;;1999.90;277.03;;;0.50;99.90;;;;;;5034095;28;20474;-71
2021/12/23 10:04:58;;;;;;;1501.73;109.10;;;0.50;99.90;;;;;;5034069;28;20534;-71
2021/12/23 10:07:27;;;;;;;991.67;85.97;;;0.50;99.90;;;;;;5032755;28;20465;-71
2021/12/23 10:10:02;;;;;;;1553.00;166.70;;;0.60;99.90;;;;;;5034207;28;20431;-70
2021/12/23 10:27:37;;;;;;;484.10;55.57;;;0.70;99.90;;;;;;5034003;28;20426;-70
2021/12/23 10:38:27;;;;;;;69.07;28.03;;;0.80;99.90;;;;;;5033718;28;20441;-70
2021/12/23 10:40:58;;;;;;;793.70;99.97;;;0.80;99.90;;;;;;5023558;28;20833;-70
2021/12/23 10:43:29;;;;;;;416.83;69.10;;;0.80;99.90;;;;;;5014203;28;20961;-70
2021/12/23 10:46:02;;;;;;;728.20;89.07;;;0.80;99.90;;;;;;5014143;28;20907;-70
2021/12/23 10:48:33;;;;;;;757.73;84.53;;;0.80;99.90;;;;;;5023468;28;20446;-71
2021/12/23 10:51:07;;;;;;;943.87;104.67;;;0.90;99.90;;;;;;5033440;28;21013;-70
2021/12/23 10:53:48;;;;;;;877.53;94.90;;;0.90;99.90;;;;;;5036325;28;20423;-71
2021/12/23 10:59:09;;;;;;;150.60;35.17;;;0.90;99.90;;;;;;5033408;28;20550;-71
2021/12/23 11:02:00;;;;;;;329.20;55.33;;;0.90;99.90;;;;;;5033401;28;20466;-71
2021/12/23 11:04:33;;;;;;;522.67;85.93;;;1.00;99.90;;;;;;5030098;28;20470;-70
2021/12/23 11:07:16;;;;;;;426.13;53.77;;;1.00;99.90;;;;;;5033889;28;20419;-70
2021/12/23 11:10:03;;;;;;;853.40;106.40;;;1.00;99.90;;;;;;5032142;28;20439;-70
2021/12/23 11:37:57;;;;;;;492.83;53.03;;;1.10;99.90;;;;;;5033197;28;20538;-70
2021/12/23 11:45:57;;;;;;;863.70;98.00;;;1.20;99.90;;;;;;5033571;28;20470;-69
2021/12/23 11:48:25;;;;;;;1546.47;690.33;;;1.20;99.90;;;;;;5032601;28;20431;-69
2021/12/23 11:51:06;;;;;;;1999.90;999.90;;;1.20;99.90;;;;;;5032786;28;20462;-69
2021/12/23 11:53:36;;;;;;;1564.57;694.03;;;1.20;99.90;;;;;;5031647;28;20908;-70
2021/12/23 11:56:10;;;;;;;1753.70;722.83;;;1.20;99.90;;;;;;5032938;28;20500;-70
2021/12/23 11:58:42;;;;;;;1680.53;695.07;;;1.20;99.90;;;;;;5032936;28;20425;-70
2021/12/23 12:01:15;;;;;;;1293.10;149.20;;;1.20;99.90;;;;;;5033094;28;20494;-71
2021/12/23 12:03:57;;;;;;;1999.90;999.90;;;1.20;99.90;;;;;;5033317;28;20454;-70
2021/12/23 12:06:28;;;;;;;1292.70;129.53;;;1.20;99.90;;;;;;5033580;28;20430;-70
2021/12/23 12:09:10;;;;;;;1917.77;722.00;;;1.20;99.90;;;;;;5032832;28;20425;-70
2021/12/23 12:11:41;;;;;;;1194.87;133.47;;;1.20;99.90;;;;;;5032388;28;20465;-70
2021/12/23 12:14:32;;;;;;;1944.03;184.57;;;1.20;99.90;;;;;;5033020;28;20780;-70
2021/12/23 12:17:37;;;;;;;1734.60;165.80;;;1.20;99.90;;;;;;5033470;28;20457;-70
2021/12/23 12:20:21;;;;;;;1085.93;99.63;;;1.30;99.90;;;;;;4999499;28;20491;-70
2021/12/23 12:22:59;;;;;;;1999.90;745.53;;;1.20;99.90;;;;;;5016600;28;20460;-70
2021/12/23 12:25:56;;;;;;;1878.20;162.87;;;1.20;99.90;;;;;;5020153;28;20434;-70
2021/12/23 12:28:45;;;;;;;1999.90;279.73;;;1.30;99.90;;;;;;5024239;28;20461;-70
2021/12/23 12:31:16;;;;;;;1999.90;326.63;;;1.30;99.90;;;;;;5036230;28;20459;-70
2021/12/23 12:34:05;;;;;;;1964.90;232.57;;;1.30;99.90;;;;;;5035972;28;20961;-70
2021/12/23 12:36:41;;;;;;;1999.90;392.17;;;1.30;99.90;;;;;;5036027;28;20420;-70
2021/12/23 12:39:24;;;;;;;1999.90;656.07;;;1.30;99.90;;;;;;5036143;28;20447;-70
2021/12/23 12:42:01;;;;;;;1999.90;419.77;;;1.30;99.90;;;;;;5035623;28;20478;-70
2021/12/23 12:44:43;;;;;;;1999.90;538.60;;;1.30;99.90;;;;;;5036045;28;20907;-70
2021/12/23 12:47:23;;;;;;;1999.90;566.77;;;1.30;99.90;;;;;;5036140;28;20433;-70
2021/12/23 12:49:54;;;;;;;1999.90;623.90;;;1.30;99.90;;;;;;5035560;28;20946;-70
2021/12/23 12:52:25;;;;;;;1999.90;704.60;;;1.30;99.90;;;;;;5015967;28;20420;-70
2021/12/23 12:55:00;;;;;;;1999.90;790.57;;;1.30;99.90;;;;;;5014569;28;20451;-70
2021/12/23 12:57:36;;;;;;;1999.90;635.23;;;1.30;99.90;;;;;;5016137;28;20433;-70
2021/12/23 13:00:19;;;;;;;1999.90;575.57;;;1.30;99.90;;;;;;5031480;28;20840;-70
2021/12/23 13:02:53;;;;;;;1999.90;785.53;;;1.30;99.90;;;;;;5035573;28;20478;-70
2021/12/23 13:05:32;;;;;;;1999.90;794.10;;;1.30;99.90;;;;;;5035985;28;20461;-70
2021/12/23 13:08:28;;;;;;;1999.90;741.87;;;1.30;99.90;;;;;;5007184;28;20450;-70
2021/12/23 13:11:23;;;;;;;1999.90;527.07;;;1.30;99.90;;;;;;5033925;28;20468;-70
2021/12/23 13:14:57;;;;;;;1999.90;734.80;;;1.30;99.90;;;;;;5035046;28;20454;-70
2021/12/23 13:18:00;;;;;;;1999.90;474.43;;;1.30;99.90;;;;;;5034950;28;20447;-70
2021/12/23 13:20:36;;;;;;;1999.90;630.17;;;1.30;99.90;;;;;;5034720;28;20573;-70
2021/12/23 13:23:06;;;;;;;1999.90;672.77;;;1.30;99.90;;;;;;5035238;28;20904;-70
2021/12/23 13:25:34;;;;;;;1999.90;553.57;;;1.30;99.90;;;;;;5035504;28;20431;-69
2021/12/23 13:28:06;;;;;;;1999.90;668.83;;;1.30;99.90;;;;;;5034899;28;20470;-70
2021/12/23 13:30:38;;;;;;;1999.90;556.33;;;1.30;99.90;;;;;;5032364;28;20822;-70
2021/12/23 13:33:10;;;;;;;1999.90;703.87;;;1.30;99.90;;;;;;5034804;28;20493;-70